Time;durP1;ratioP1;P1;durP2;ratioP2;P2;SDS_P1;SDS_P2;PMS_P1;PMS_P2;Temp;Humidity;BMP_temperature;BMP_pressure;BME280_temperature;BME280_humidity;BME280_pressure;Samples;Min_cycle;Max_cycle;Signal;HPM_P1;HPM_P2
2024/03/30 00:03:55;;;;;;;38.80;29.67;;;;;;;;;;10024357;28;20146;-68
2024/03/30 00:08:47;;;;;;;42.50;29.92;;;;;;;;;;10034408;28;20490;-68
2024/03/30 00:13:39;;;;;;;49.70;33.15;;;;;;;;;;10042598;28;20094;-68
2024/03/30 00:18:32;;;;;;;47.92;33.08;;;;;;;;;;10060153;28;20045;-68
2024/03/30 00:23:25;;;;;;;48.40;32.72;;;;;;;;;;10059946;28;20420;-68
2024/03/30 00:28:17;;;;;;;63.28;36.83;;;;;;;;;;10056605;28;20049;-68
2024/03/30 00:33:33;;;;;;;45.65;33.55;;;;;;;;;;10044115;28;20044;-67
2024/03/30 00:38:26;;;;;;;45.38;29.88;;;;;;;;;;10061960;28;20068;-67
2024/03/30 00:43:18;;;;;;;48.05;33.92;;;;;;;;;;10045698;28;20046;-68
2024/03/30 00:48:13;;;;;;;48.05;29.98;;;;;;;;;;10042126;28;20111;-67
2024/03/30 00:53:04;;;;;;;59.53;33.00;;;;;;;;;;10045012;28;20418;-67
2024/03/30 00:57:58;;;;;;;61.10;34.28;;;;;;;;;;10044858;28;20057;-67
2024/03/30 01:02:50;;;;;;;54.33;35.25;;;;;;;;;;10030029;28;20042;-66
2024/03/30 01:07:43;;;;;;;63.00;36.47;;;;;;;;;;10068448;28;20049;-67
2024/03/30 01:12:36;;;;;;;78.32;39.47;;;;;;;;;;10050323;28;20141;-67
2024/03/30 01:17:30;;;;;;;78.53;39.42;;;;;;;;;;10052360;28;20049;-67
2024/03/30 01:22:23;;;;;;;72.57;40.60;;;;;;;;;;10068131;28;20049;-66
2024/03/30 01:27:20;;;;;;;70.95;37.00;;;;;;;;;;10067575;28;20046;-67
2024/03/30 01:32:14;;;;;;;73.55;41.08;;;;;;;;;;10051136;28;20717;-66
2024/03/30 01:37:07;;;;;;;71.93;40.45;;;;;;;;;;10050796;28;20060;-66
2024/03/30 01:42:00;;;;;;;78.28;40.97;;;;;;;;;;10050690;28;20049;-66
2024/03/30 01:46:53;;;;;;;87.57;43.03;;;;;;;;;;10050439;28;20136;-66
2024/03/30 01:51:47;;;;;;;91.75;42.53;;;;;;;;;;10050574;28;20080;-67
2024/03/30 01:56:41;;;;;;;80.28;42.63;;;;;;;;;;10050049;28;20041;-66
2024/03/30 02:01:34;;;;;;;97.50;43.03;;;;;;;;;;10066275;28;20414;-66
2024/03/30 02:06:27;;;;;;;82.18;42.60;;;;;;;;;;10047776;28;20033;-66
2024/03/30 02:11:19;;;;;;;87.28;42.60;;;;;;;;;;10045937;28;20056;-68
2024/03/30 02:16:12;;;;;;;73.72;38.72;;;;;;;;;;10057397;28;20085;-65
2024/03/30 02:21:05;;;;;;;83.15;38.72;;;;;;;;;;10047170;28;20445;-66
2024/03/30 02:26:01;;;;;;;55.92;29.92;;;;;;;;;;10048893;28;20045;-67
2024/03/30 02:30:54;;;;;;;73.43;37.15;;;;;;;;;;10049190;28;20064;-66
2024/03/30 02:35:46;;;;;;;64.13;35.72;;;;;;;;;;10048401;28;20048;-66
2024/03/30 02:40:56;;;;;;;77.95;36.83;;;;;;;;;;10048835;28;20037;-68
2024/03/30 02:45:48;;;;;;;;;;;;;;;;;;10049210;28;20045;-66
2024/03/30 02:50:41;;;;;;;69.85;37.60;;;;;;;;;;10064281;28;20377;-66
2024/03/30 02:55:33;;;;;;;91.53;41.30;;;;;;;;;;10048213;28;20464;-66
2024/03/30 03:00:26;;;;;;;98.30;41.30;;;;;;;;;;10046460;28;20041;-66
2024/03/30 03:05:19;;;;;;;92.18;38.10;;;;;;;;;;10047328;28;20049;-66
2024/03/30 03:10:12;;;;;;;96.78;40.88;;;;;;;;;;10047812;28;20045;-66
2024/03/30 03:15:04;;;;;;;93.43;40.13;;;;;;;;;;10047685;28;20041;-66
2024/03/30 03:19:56;;;;;;;85.10;40.22;;;;;;;;;;10048724;28;20049;-66
2024/03/30 03:24:49;;;;;;;108.43;47.47;;;;;;;;;;10047168;28;20120;-66
2024/03/30 03:29:41;;;;;;;99.45;45.28;;;;;;;;;;10045817;28;20045;-66
2024/03/30 03:34:34;;;;;;;86.55;42.20;;;;;;;;;;10047001;28;20497;-66
2024/03/30 03:39:26;;;;;;;74.38;39.88;;;;;;;;;;10046935;28;20045;-67
2024/03/30 03:44:19;;;;;;;79.47;40.35;;;;;;;;;;10046470;28;20054;-66
2024/03/30 03:49:11;;;;;;;87.90;41.10;;;;;;;;;;10047608;28;20126;-66
2024/03/30 03:54:04;;;;;;;76.85;37.80;;;;;;;;;;10062958;28;20046;-67
2024/03/30 03:58:57;;;;;;;66.63;38.25;;;;;;;;;;10061752;28;20556;-66
2024/03/30 04:03:49;;;;;;;80.30;39.78;;;;;;;;;;10079087;28;20046;-67
2024/03/30 04:08:42;;;;;;;59.65;33.10;;;;;;;;;;10063337;28;20053;-67
2024/03/30 04:13:34;;;;;;;67.40;34.08;;;;;;;;;;10062050;28;20132;-68
2024/03/30 04:18:27;;;;;;;67.30;33.63;;;;;;;;;;10061376;28;20452;-67
2024/03/30 04:23:20;;;;;;;62.78;32.53;;;;;;;;;;10079617;28;20054;-67
2024/03/30 04:28:12;;;;;;;77.22;32.67;;;;;;;;;;10062052;28;20136;-65
2024/03/30 04:33:05;;;;;;;69.63;32.58;;;;;;;;;;10061747;28;20057;-68
2024/03/30 04:37:58;;;;;;;69.97;36.10;;;;;;;;;;10063798;28;20147;-68
2024/03/30 04:42:50;;;;;;;66.10;31.83;;;;;;;;;;10068974;28;20053;-68
2024/03/30 04:47:43;;;;;;;80.65;34.88;;;;;;;;;;10069387;28;20107;-67
2024/03/30 04:52:36;;;;;;;63.95;29.88;;;;;;;;;;10053039;28;20100;-68
2024/03/30 04:57:29;;;;;;;58.92;30.42;;;;;;;;;;10052883;28;20045;-68
2024/03/30 05:02:21;;;;;;;87.80;37.88;;;;;;;;;;10052694;28;20041;-67
2024/03/30 05:07:14;;;;;;;74.28;33.88;;;;;;;;;;10034445;28;20128;-68
2024/03/30 05:12:08;;;;;;;69.10;34.15;;;;;;;;;;10053182;28;20124;-68
2024/03/30 05:17:00;;;;;;;85.53;35.42;;;;;;;;;;10053337;28;20404;-68
2024/03/30 05:21:53;;;;;;;68.65;33.67;;;;;;;;;;10054363;28;20494;-68
2024/03/30 05:26:46;;;;;;;68.38;34.15;;;;;;;;;;10053836;28;20052;-68
2024/03/30 05:31:38;;;;;;;84.53;35.92;;;;;;;;;;10032738;28;20493;-66
2024/03/30 05:36:36;;;;;;;60.38;28.02;;;;;;;;;;10053388;28;20099;-66
2024/03/30 05:41:28;;;;;;;61.13;24.42;;;;;;;;;;10044509;28;20064;-67
2024/03/30 05:46:23;;;;;;;66.38;24.42;;;;;;;;;;10050446;28;20050;-66
2024/03/30 05:51:16;;;;;;;40.33;17.75;;;;;;;;;;10049993;28;20142;-67
2024/03/30 05:56:09;;;;;;;47.15;15.50;;;;;;;;;;10050241;28;20053;-66
2024/03/30 06:01:01;;;;;;;37.65;14.15;;;;;;;;;;10048178;28;20053;-68
2024/03/30 06:05:54;;;;;;;47.00;14.88;;;;;;;;;;10043738;28;20056;-68
2024/03/30 06:10:47;;;;;;;45.67;18.10;;;;;;;;;;10048665;28;20196;-67
2024/03/30 06:15:39;;;;;;;51.05;15.98;;;;;;;;;;10063068;28;20099;-66
2024/03/30 06:20:32;;;;;;;36.88;13.77;;;;;;;;;;10043371;28;20064;-67
2024/03/30 06:25:25;;;;;;;42.60;14.23;;;;;;;;;;10043772;28;20119;-66
2024/03/30 06:30:18;;;;;;;44.47;15.60;;;;;;;;;;10060273;28;20053;-68
2024/03/30 06:35:11;;;;;;;48.75;17.58;;;;;;;;;;10058811;28;20520;-67
2024/03/30 06:45:15;;;;;;;46.40;16.27;;;;;;;;;;10037210;28;20140;-67
2024/03/30 06:50:08;;;;;;;39.72;14.32;;;;;;;;;;10047423;28;20132;-67
2024/03/30 06:55:01;;;;;;;49.72;14.75;;;;;;;;;;10044888;28;20072;-66
2024/03/30 06:59:54;;;;;;;44.97;13.77;;;;;;;;;;10044705;28;20099;-66
2024/03/30 07:04:46;;;;;;;40.53;16.08;;;;;;;;;;10044617;28;20071;-66
2024/03/30 07:09:38;;;;;;;52.78;14.88;;;;;;;;;;10058557;28;20488;-67
2024/03/30 07:14:32;;;;;;;40.97;14.80;;;;;;;;;;10032317;28;20091;-67
2024/03/30 07:19:25;;;;;;;54.40;15.32;;;;;;;;;;10054999;28;20052;-66
2024/03/30 07:24:17;;;;;;;45.20;14.75;;;;;;;;;;10033786;28;20473;-66
2024/03/30 07:29:10;;;;;;;44.05;14.82;;;;;;;;;;10065846;28;20110;-67
2024/03/30 07:34:02;;;;;;;57.25;14.18;;;;;;;;;;10061685;28;20053;-70
2024/03/30 07:38:55;;;;;;;37.10;13.52;;;;;;;;;;10062065;28;20054;-67
2024/03/30 07:43:48;;;;;;;62.03;15.43;;;;;;;;;;10061648;28;20049;-67
2024/03/30 07:48:40;;;;;;;40.33;15.88;;;;;;;;;;10062492;28;20053;-67
2024/03/30 07:53:33;;;;;;;46.65;14.35;;;;;;;;;;10026015;28;20049;-67
2024/03/30 07:58:26;;;;;;;50.28;16.55;;;;;;;;;;10063340;28;20056;-67
2024/03/30 08:03:18;;;;;;;49.47;16.70;;;;;;;;;;10037762;28;20052;-67
2024/03/30 08:08:11;;;;;;;58.67;17.17;;;;;;;;;;10038397;28;20469;-68
2024/03/30 08:13:04;;;;;;;58.22;16.23;;;;;;;;;;10044220;28;20098;-67
2024/03/30 08:17:58;;;;;;;60.50;18.15;;;;;;;;;;10042907;28;20140;-67
2024/03/30 08:22:51;;;;;;;50.92;17.23;;;;;;;;;;10036147;28;20175;-66
2024/03/30 08:27:44;;;;;;;60.47;15.43;;;;;;;;;;10051982;28;20075;-68
2024/03/30 08:32:36;;;;;;;53.78;15.68;;;;;;;;;;10033823;28;20324;-67
2024/03/30 08:37:29;;;;;;;50.25;15.13;;;;;;;;;;10036051;28;20103;-67
2024/03/30 08:42:21;;;;;;;54.53;14.02;;;;;;;;;;10059769;28;20053;-67
2024/03/30 08:47:14;;;;;;;53.33;15.10;;;;;;;;;;10060122;28;20183;-67
2024/03/30 08:52:07;;;;;;;48.83;16.60;;;;;;;;;;10036776;28;20140;-66
2024/03/30 08:57:00;;;;;;;42.28;13.20;;;;;;;;;;10058278;28;20053;-66
2024/03/30 09:01:54;;;;;;;53.50;12.90;;;;;;;;;;10055595;28;20052;-67
2024/03/30 09:06:46;;;;;;;50.50;14.48;;;;;;;;;;10037764;28;20048;-67
2024/03/30 09:11:38;;;;;;;57.70;12.85;;;;;;;;;;10043609;28;20045;-66
2024/03/30 09:16:32;;;;;;;55.55;14.55;;;;;;;;;;10045066;28;20541;-67
2024/03/30 09:21:24;;;;;;;49.08;12.77;;;;;;;;;;10042278;28;20042;-67
2024/03/30 09:26:17;;;;;;;44.42;14.90;;;;;;;;;;10047650;28;20539;-68
2024/03/30 09:31:09;;;;;;;51.17;14.75;;;;;;;;;;10043627;28;20410;-67
2024/03/30 09:36:11;;;;;;;58.63;12.25;;;;;;;;;;10050656;28;20388;-66
2024/03/30 09:41:04;;;;;;;39.17;11.32;;;;;;;;;;10050524;28;20050;-67
2024/03/30 09:45:58;;;;;;;47.95;12.18;;;;;;;;;;10049847;28;20045;-67
2024/03/30 09:50:53;;;;;;;71.38;15.30;;;;;;;;;;10065751;28;20531;-68
2024/03/30 09:55:46;;;;;;;63.30;13.45;;;;;;;;;;10081857;28;20057;-68
2024/03/30 10:00:38;;;;;;;41.78;12.45;;;;;;;;;;10063149;28;20050;-66
2024/03/30 10:05:34;;;;;;;63.33;16.48;;;;;;;;;;10065868;28;20509;-66
2024/03/30 10:10:28;;;;;;;53.37;10.93;;;;;;;;;;10079499;28;20038;-65
2024/03/30 10:15:32;;;;;;;51.90;15.93;;;;;;;;;;10059185;28;20107;-66
2024/03/30 10:20:24;;;;;;;57.53;13.25;;;;;;;;;;10080742;28;20045;-67
2024/03/30 10:25:17;;;;;;;67.93;11.98;;;;;;;;;;10066797;28;20080;-68
2024/03/30 10:30:12;;;;;;;53.95;13.80;;;;;;;;;;10065480;28;20049;-67
2024/03/30 10:35:07;;;;;;;86.82;16.08;;;;;;;;;;10066972;28;20049;-68
2024/03/30 10:40:07;;;;;;;59.08;12.27;;;;;;;;;;10059848;28;20128;-67
2024/03/30 10:45:03;;;;;;;67.85;13.27;;;;;;;;;;10065352;28;20053;-67
2024/03/30 10:50:13;;;;;;;54.55;12.95;;;;;;;;;;10074829;28;20143;-66
2024/03/30 10:55:07;;;;;;;52.08;10.68;;;;;;;;;;10064378;28;20501;-67
2024/03/30 11:00:03;;;;;;;56.03;11.45;;;;;;;;;;10064785;28;20057;-67
2024/03/30 11:04:58;;;;;;;54.22;11.95;;;;;;;;;;10066636;28;20091;-67
2024/03/30 11:09:50;;;;;;;49.75;14.48;;;;;;;;;;10065872;28;20045;-67
2024/03/30 11:14:43;;;;;;;54.33;11.93;;;;;;;;;;10067285;28;20053;-67
2024/03/30 11:19:38;;;;;;;51.45;13.02;;;;;;;;;;10055967;28;20049;-67
2024/03/30 11:24:31;;;;;;;51.92;10.55;;;;;;;;;;10067493;28;20485;-70
2024/03/30 11:29:53;;;;;;;71.07;14.32;;;;;;;;;;10076913;28;20060;-69
2024/03/30 11:34:57;;;;;;;50.42;14.07;;;;;;;;;;10065661;28;20489;-69
2024/03/30 11:40:04;;;;;;;63.22;13.00;;;;;;;;;;10047789;28;20053;-68
2024/03/30 11:44:57;;;;;;;68.47;14.40;;;;;;;;;;10065500;28;20064;-68
2024/03/30 11:49:49;;;;;;;73.40;16.42;;;;;;;;;;10064696;28;20057;-69
2024/03/30 11:54:45;;;;;;;64.68;12.82;;;;;;;;;;10064874;28;20046;-69
2024/03/30 11:59:39;;;;;;;64.95;13.65;;;;;;;;;;10061302;28;20053;-69
2024/03/30 12:04:34;;;;;;;57.50;14.35;;;;;;;;;;10059723;28;20047;-69
2024/03/30 12:09:28;;;;;;;62.28;15.25;;;;;;;;;;10065892;28;20057;-71
2024/03/30 12:14:25;;;;;;;59.10;13.32;;;;;;;;;;10050924;28;20041;-69
2024/03/30 12:19:18;;;;;;;63.60;15.57;;;;;;;;;;10062461;28;20046;-70
2024/03/30 12:24:11;;;;;;;52.80;14.27;;;;;;;;;;10050459;28;20049;-71
2024/03/30 12:29:03;;;;;;;46.65;11.98;;;;;;;;;;10062183;28;20107;-69
2024/03/30 12:33:56;;;;;;;68.65;14.35;;;;;;;;;;10046114;28;20056;-69
2024/03/30 12:38:49;;;;;;;64.22;15.43;;;;;;;;;;10058558;28;20080;-70
2024/03/30 12:43:41;;;;;;;44.70;11.07;;;;;;;;;;10078737;28;20045;-70
2024/03/30 12:48:34;;;;;;;68.13;14.52;;;;;;;;;;10058557;28;20409;-70
2024/03/30 12:53:27;;;;;;;59.58;13.10;;;;;;;;;;10046042;28;20079;-69
2024/03/30 12:58:20;;;;;;;62.67;14.45;;;;;;;;;;10044809;28;20050;-69
2024/03/30 13:03:12;;;;;;;57.88;12.25;;;;;;;;;;10051285;28;20092;-69
2024/03/30 13:08:10;;;;;;;65.32;13.10;;;;;;;;;;10062932;28;20048;-68
2024/03/30 13:13:19;;;;;;;64.32;10.93;;;;;;;;;;10045804;28;20063;-69
2024/03/30 13:18:12;;;;;;;66.32;13.30;;;;;;;;;;10043314;28;20062;-69
2024/03/30 13:23:04;;;;;;;61.58;10.43;;;;;;;;;;10041706;28;20056;-69
2024/03/30 13:27:57;;;;;;;44.00;10.02;;;;;;;;;;10035037;28;20144;-69
2024/03/30 13:32:50;;;;;;;59.08;13.35;;;;;;;;;;10046627;28;20053;-70
2024/03/30 13:37:44;;;;;;;52.15;11.48;;;;;;;;;;10049271;28;20037;-71
2024/03/30 13:42:37;;;;;;;64.97;11.60;;;;;;;;;;10049818;28;20056;-70
2024/03/30 13:47:29;;;;;;;42.75;8.35;;;;;;;;;;10053723;28;20132;-70
2024/03/30 13:52:22;;;;;;;40.03;6.97;;;;;;;;;;10022145;28;20057;-72
2024/03/30 13:57:15;;;;;;;52.00;8.43;;;;;;;;;;10049909;28;20551;-71
2024/03/30 14:02:09;;;;;;;46.95;8.57;;;;;;;;;;10048016;28;20136;-69
2024/03/30 14:07:02;;;;;;;38.47;9.70;;;;;;;;;;10036766;28;20049;-70
2024/03/30 14:11:55;;;;;;;32.95;8.05;;;;;;;;;;10045825;28;20045;-69
2024/03/30 14:16:47;;;;;;;40.22;8.35;;;;;;;;;;10049677;28;20049;-70
2024/03/30 14:21:40;;;;;;;43.40;8.02;;;;;;;;;;10046373;28;20120;-71
2024/03/30 14:26:32;;;;;;;32.20;9.57;;;;;;;;;;10044932;28;20060;-70
2024/03/30 14:31:26;;;;;;;42.85;10.70;;;;;;;;;;10046804;28;20080;-70
2024/03/30 14:36:31;;;;;;;42.30;9.82;;;;;;;;;;10026619;28;20045;-70
2024/03/30 14:41:24;;;;;;;67.75;8.93;;;;;;;;;;10039066;28;20053;-69
2024/03/30 14:46:16;;;;;;;40.55;8.88;;;;;;;;;;10041594;28;20046;-69
2024/03/30 14:51:09;;;;;;;44.50;10.10;;;;;;;;;;10043530;28;20057;-69
2024/03/30 14:56:03;;;;;;;31.48;7.70;;;;;;;;;;10060850;28;20156;-68
2024/03/30 15:00:56;;;;;;;54.88;10.80;;;;;;;;;;10042426;28;20041;-69
2024/03/30 15:05:48;;;;;;;46.97;11.20;;;;;;;;;;10024762;28;20045;-68
2024/03/30 15:10:41;;;;;;;51.05;10.75;;;;;;;;;;10044091;28;20049;-68
2024/03/30 15:15:33;;;;;;;53.60;8.10;;;;;;;;;;10044255;28;20045;-69
2024/03/30 15:20:25;;;;;;;57.45;12.05;;;;;;;;;;10047037;28;20054;-69
2024/03/30 15:25:18;;;;;;;53.28;8.55;;;;;;;;;;10059938;28;20049;-69
2024/03/30 15:35:21;;;;;;;58.78;7.85;;;;;;;;;;10040371;28;20535;-70
2024/03/30 15:40:17;;;;;;;62.13;11.30;;;;;;;;;;10058938;28;20053;-69
2024/03/30 15:45:11;;;;;;;47.20;9.63;;;;;;;;;;10040250;28;20428;-69
2024/03/30 15:50:04;;;;;;;46.55;11.30;;;;;;;;;;10059481;28;20049;-69
2024/03/30 15:54:57;;;;;;;49.92;9.65;;;;;;;;;;10041634;28;20053;-68
2024/03/30 15:59:52;;;;;;;57.60;9.95;;;;;;;;;;10053360;28;20042;-68
2024/03/30 16:04:49;;;;;;;84.47;16.75;;;;;;;;;;10041036;28;20045;-69
2024/03/30 16:09:41;;;;;;;77.70;12.00;;;;;;;;;;10058498;28;20045;-69
2024/03/30 16:14:33;;;;;;;83.93;15.10;;;;;;;;;;10047775;28;20042;-68
2024/03/30 16:19:25;;;;;;;92.18;17.98;;;;;;;;;;10055794;28;20065;-68
2024/03/30 16:24:20;;;;;;;78.03;14.95;;;;;;;;;;10031473;28;20115;-70
2024/03/30 16:29:12;;;;;;;73.82;14.30;;;;;;;;;;10046886;28;20053;-66
2024/03/30 16:34:05;;;;;;;75.05;15.43;;;;;;;;;;10048345;28;20072;-69
2024/03/30 16:38:58;;;;;;;94.25;19.75;;;;;;;;;;10046926;28;20505;-69
2024/03/30 16:43:51;;;;;;;90.95;16.27;;;;;;;;;;10066007;28;20045;-69
2024/03/30 16:48:43;;;;;;;83.15;12.90;;;;;;;;;;10037636;28;20057;-69
2024/03/30 16:53:36;;;;;;;88.15;15.63;;;;;;;;;;10050718;28;20057;-69
2024/03/30 16:58:27;;;;;;;95.60;16.77;;;;;;;;;;10050596;28;20045;-68
2024/03/30 17:03:19;;;;;;;83.97;17.20;;;;;;;;;;10053953;28;20639;-69
2024/03/30 17:08:12;;;;;;;82.00;17.42;;;;;;;;;;10046411;28;20057;-69
2024/03/30 17:13:04;;;;;;;81.93;16.80;;;;;;;;;;10066931;28;20041;-69
2024/03/30 17:17:57;;;;;;;94.70;18.33;;;;;;;;;;10069134;28;20505;-69
2024/03/30 17:22:50;;;;;;;94.32;18.08;;;;;;;;;;10069322;28;20076;-69
2024/03/30 17:27:43;;;;;;;87.75;17.83;;;;;;;;;;10069980;28;20071;-69
2024/03/30 17:32:37;;;;;;;93.93;15.93;;;;;;;;;;10060453;28;20057;-68
2024/03/30 17:37:30;;;;;;;77.95;17.48;;;;;;;;;;10069062;28;20054;-67
2024/03/30 17:42:22;;;;;;;92.50;17.20;;;;;;;;;;10069156;28;20042;-69
2024/03/30 17:47:14;;;;;;;82.72;17.27;;;;;;;;;;10067585;28;20050;-68
2024/03/30 17:52:06;;;;;;;90.70;19.25;;;;;;;;;;10068122;28;20045;-69
2024/03/30 17:56:59;;;;;;;92.63;18.40;;;;;;;;;;10047532;28;20057;-69
2024/03/30 18:01:51;;;;;;;78.88;15.57;;;;;;;;;;10051531;28;20033;-70
2024/03/30 18:06:44;;;;;;;94.28;17.27;;;;;;;;;;10044067;28;20053;-70
2024/03/30 18:11:37;;;;;;;94.63;21.25;;;;;;;;;;10051088;28;20528;-69
2024/03/30 18:16:31;;;;;;;98.53;18.88;;;;;;;;;;10048264;28;20489;-69
2024/03/30 18:21:23;;;;;;;86.45;21.50;;;;;;;;;;10050590;28;20528;-68
2024/03/30 18:26:19;;;;;;;96.28;18.58;;;;;;;;;;10072598;28;20115;-69
2024/03/30 18:31:13;;;;;;;132.13;20.60;;;;;;;;;;10050898;28;20574;-69
2024/03/30 18:36:07;;;;;;;108.55;24.63;;;;;;;;;;10051001;28;20493;-69
2024/03/30 18:40:59;;;;;;;82.18;16.33;;;;;;;;;;10067362;28;20056;-70
2024/03/30 18:45:51;;;;;;;79.93;23.38;;;;;;;;;;10066824;28;20505;-69
2024/03/30 18:50:44;;;;;;;99.57;20.45;;;;;;;;;;10055085;28;20049;-69
2024/03/30 18:55:35;;;;;;;88.93;24.98;;;;;;;;;;10082852;28;20057;-70
2024/03/30 19:00:29;;;;;;;106.70;28.02;;;;;;;;;;10066590;28;20046;-69
2024/03/30 19:05:22;;;;;;;87.13;22.45;;;;;;;;;;10082155;28;20515;-69
2024/03/30 19:10:14;;;;;;;99.03;28.73;;;;;;;;;;10082670;28;20053;-69
2024/03/30 19:15:07;;;;;;;115.32;25.50;;;;;;;;;;10065652;28;20517;-69
2024/03/30 19:19:59;;;;;;;84.10;15.38;;;;;;;;;;10044528;28;20447;-68
2024/03/30 19:24:51;;;;;;;94.15;16.55;;;;;;;;;;10058687;28;20513;-67
2024/03/30 19:29:46;;;;;;;111.07;22.58;;;;;;;;;;10068905;28;20048;-67
2024/03/30 19:34:41;;;;;;;87.78;23.38;;;;;;;;;;10047408;28;20056;-70
2024/03/30 19:39:34;;;;;;;98.80;22.65;;;;;;;;;;10055841;28;20041;-69
2024/03/30 19:44:27;;;;;;;126.53;28.27;;;;;;;;;;10057113;28;20131;-69
2024/03/30 19:49:20;;;;;;;101.75;23.48;;;;;;;;;;10058824;28;20144;-69
2024/03/30 19:54:13;;;;;;;94.85;21.15;;;;;;;;;;10079231;28;20049;-68
2024/03/30 19:59:07;;;;;;;102.05;20.65;;;;;;;;;;10061077;28;20048;-69
2024/03/30 20:03:59;;;;;;;95.20;17.35;;;;;;;;;;10078940;28;20138;-69
2024/03/30 20:08:52;;;;;;;109.57;21.55;;;;;;;;;;10048245;28;20525;-68
2024/03/30 20:13:46;;;;;;;113.43;20.20;;;;;;;;;;10059773;28;20060;-67
2024/03/30 20:18:38;;;;;;;129.07;22.95;;;;;;;;;;10062207;28;20053;-68
2024/03/30 20:23:32;;;;;;;109.55;22.23;;;;;;;;;;10078230;28;20049;-68
2024/03/30 20:28:26;;;;;;;130.60;23.13;;;;;;;;;;10057697;28;20469;-69
2024/03/30 20:33:18;;;;;;;97.90;19.05;;;;;;;;;;10054068;28;20451;-67
2024/03/30 20:38:11;;;;;;;103.90;22.38;;;;;;;;;;10074817;28;20102;-68
2024/03/30 20:43:04;;;;;;;105.57;22.35;;;;;;;;;;10096181;28;20756;-69
2024/03/30 20:47:56;;;;;;;127.28;30.17;;;;;;;;;;10089094;28;20393;-68
2024/03/30 20:52:49;;;;;;;140.80;26.08;;;;;;;;;;10083515;28;20045;-68
2024/03/30 20:57:42;;;;;;;115.10;23.15;;;;;;;;;;10089886;28;20045;-69
2024/03/30 21:02:34;;;;;;;143.93;26.20;;;;;;;;;;10097525;28;20167;-68
2024/03/30 21:07:27;;;;;;;121.97;22.63;;;;;;;;;;10092159;28;20053;-66
2024/03/30 21:12:20;;;;;;;121.68;23.58;;;;;;;;;;10098980;28;20556;-68
2024/03/30 21:17:12;;;;;;;124.60;24.73;;;;;;;;;;10091993;28;20057;-68
2024/03/30 21:22:04;;;;;;;132.68;27.90;;;;;;;;;;10086501;28;20042;-68
2024/03/30 21:26:57;;;;;;;123.35;23.95;;;;;;;;;;10100469;28;20061;-68
2024/03/30 21:31:49;;;;;;;113.45;22.92;;;;;;;;;;10095536;28;20519;-68
2024/03/30 21:36:42;;;;;;;123.75;24.00;;;;;;;;;;10088083;28;20536;-68
2024/03/30 21:41:34;;;;;;;118.03;19.63;;;;;;;;;;10091196;28;20037;-68
2024/03/30 21:46:30;;;;;;;151.82;26.17;;;;;;;;;;10099163;28;20048;-69
2024/03/30 21:51:23;;;;;;;116.45;20.02;;;;;;;;;;10100077;28;20037;-68
2024/03/30 21:56:16;;;;;;;105.53;20.00;;;;;;;;;;10098249;28;20053;-69
2024/03/30 22:01:09;;;;;;;142.25;24.40;;;;;;;;;;10097887;28;20080;-68
2024/03/30 22:06:02;;;;;;;119.25;23.10;;;;;;;;;;10106008;28;20132;-67
2024/03/30 22:10:55;;;;;;;130.75;23.33;;;;;;;;;;10104977;28;20477;-67
2024/03/30 22:15:49;;;;;;;99.85;21.63;;;;;;;;;;10095719;28;20049;-67
2024/03/30 22:20:42;;;;;;;36.13;7.25;;;;;;;;;;10091052;28;20052;-69
2024/03/30 22:25:36;;;;;;;22.45;5.45;;;;;;;;;;10111531;28;20113;-66
2024/03/30 22:30:28;;;;;;;23.58;4.47;;;;;;;;;;10105775;28;20048;-68
2024/03/30 22:35:21;;;;;;;18.70;4.50;;;;;;;;;;10104695;28;20426;-68
2024/03/30 22:40:14;;;;;;;30.13;8.38;;;;;;;;;;10106473;28;20130;-67
2024/03/30 22:45:08;;;;;;;24.00;6.97;;;;;;;;;;10102723;28;20127;-67
2024/03/30 22:50:01;;;;;;;17.48;5.03;;;;;;;;;;10097059;28;20397;-68
2024/03/30 22:54:53;;;;;;;13.93;3.88;;;;;;;;;;10102044;28;20049;-67
2024/03/30 22:59:46;;;;;;;19.52;4.88;;;;;;;;;;10103261;28;20412;-67
2024/03/30 23:04:38;;;;;;;10.75;4.32;;;;;;;;;;10087092;28;20045;-67
2024/03/30 23:09:31;;;;;;;24.55;7.15;;;;;;;;;;10091171;28;20493;-67
2024/03/30 23:14:23;;;;;;;21.50;4.75;;;;;;;;;;10072966;28;20049;-66
2024/03/30 23:19:16;;;;;;;32.70;6.72;;;;;;;;;;10075370;28;20077;-66
2024/03/30 23:24:08;;;;;;;26.45;6.18;;;;;;;;;;10086341;28;20057;-68
2024/03/30 23:29:01;;;;;;;34.40;9.32;;;;;;;;;;10101721;28;20524;-67
2024/03/30 23:33:55;;;;;;;27.25;5.82;;;;;;;;;;10092005;28;20095;-67
2024/03/30 23:38:49;;;;;;;20.80;6.57;;;;;;;;;;10116379;28;20583;-67
2024/03/30 23:43:43;;;;;;;30.83;7.60;;;;;;;;;;10095518;28;20074;-67
2024/03/30 23:48:35;;;;;;;25.50;6.43;;;;;;;;;;10094027;28;20045;-68
2024/03/30 23:53:28;;;;;;;24.05;6.75;;;;;;;;;;10095344;28;20226;-66
2024/03/30 23:58:21;;;;;;;27.20;6.15;;;;;;;;;;10097068;28;20453;-66
